createdAt,value
2023-01-10T00:01:08.702Z,98270.16
2023-01-10T00:03:36.739Z,98286.47
2023-01-10T00:06:06.376Z,98286.22
2023-01-10T00:08:34.708Z,98288.25
2023-01-10T00:11:22.731Z,98292.03
2023-01-10T00:13:53.084Z,98296.44
2023-01-10T00:16:21.421Z,98306.41
2023-01-10T00:18:49.806Z,98306.13
2023-01-10T00:21:19.639Z,98308.13
2023-01-10T00:23:48.976Z,98316.38
2023-01-10T00:26:17.028Z,98326.22
2023-01-10T00:28:45.205Z,98318.09
2023-01-10T00:31:13.841Z,98326.84
2023-01-10T00:33:41.811Z,98321.13
2023-01-10T00:36:11.884Z,98328.03
2023-01-10T00:38:41.337Z,98337.91
2023-01-10T00:41:29.278Z,98341.19
2023-01-10T00:43:58.880Z,98352.50
2023-01-10T00:46:27.482Z,98364.19
2023-01-10T00:48:55.529Z,98371.88
2023-01-10T00:51:23.430Z,98379.63
2023-01-10T00:53:52.736Z,98365.41
2023-01-10T00:56:20.684Z,98371.13
2023-01-10T00:58:48.668Z,98377.72
2023-01-10T01:01:16.748Z,98375.41
2023-01-10T01:03:44.674Z,98383.31
2023-01-10T01:06:12.604Z,98402.38
2023-01-10T01:08:40.634Z,98401.56
2023-01-10T01:11:09.963Z,98410.06
2023-01-10T01:13:37.822Z,98405.06
2023-01-10T01:16:06.193Z,98397.69
2023-01-10T01:18:34.197Z,98409.94
2023-01-10T01:21:03.584Z,98406.41
2023-01-10T01:23:32.236Z,98419.31
2023-01-10T01:26:00.283Z,98436.25
2023-01-10T01:28:29.623Z,98434.31
2023-01-10T01:30:57.562Z,98440.50
2023-01-10T01:33:25.587Z,98442.81
2023-01-10T01:35:53.432Z,98447.44
2023-01-10T01:38:21.221Z,98462.63
2023-01-10T01:40:49.092Z,98462.63
2023-01-10T01:43:24.478Z,98466.78
2023-01-10T01:45:54.803Z,98475.91
2023-01-10T01:48:31.000Z,98484.78
2023-01-10T01:51:05.744Z,98487.00
2023-01-10T01:53:38.432Z,98484.06
2023-01-10T01:56:10.988Z,98485.03
2023-01-10T01:58:43.714Z,98495.03
2023-01-10T02:01:14.229Z,98498.31
2023-01-10T02:03:44.264Z,98512.31
2023-01-10T02:06:13.259Z,98526.91
2023-01-10T02:08:50.568Z,98536.06
2023-01-10T02:11:18.502Z,98555.41
2023-01-10T02:13:47.733Z,98552.75
2023-01-10T02:16:17.399Z,98569.13
2023-01-10T02:18:45.652Z,98573.28
2023-01-10T02:21:32.410Z,98562.69
2023-01-10T02:24:43.514Z,98583.25
2023-01-10T02:27:20.335Z,98565.75
2023-01-10T02:30:18.839Z,98586.28
2023-01-10T02:33:04.221Z,98586.06
2023-01-10T02:35:47.522Z,98591.06
2023-01-10T02:38:24.591Z,98603.63
2023-01-10T02:41:02.453Z,98611.91
2023-01-10T02:43:35.635Z,98596.06
2023-01-10T02:46:08.645Z,98605.53
2023-01-10T02:48:38.791Z,98622.13
2023-01-10T02:51:17.496Z,98643.09
2023-01-10T02:53:49.754Z,98663.44
2023-01-10T02:56:52.049Z,98664.41
2023-01-10T02:59:47.705Z,98663.28
2023-01-10T03:02:28.935Z,98682.44
2023-01-10T03:05:10.544Z,98687.69
2023-01-10T03:07:44.956Z,98702.72
2023-01-10T03:10:17.935Z,98718.31
2023-01-10T03:12:52.495Z,98708.56
2023-01-10T03:15:22.531Z,98734.81
2023-01-10T03:17:56.652Z,98745.25
2023-01-10T03:20:28.150Z,98743.56
2023-01-10T03:22:57.247Z,98739.00
2023-01-10T03:25:32.640Z,98766.91
2023-01-10T03:28:07.289Z,98765.16
2023-01-10T03:30:43.767Z,98780.63
2023-01-10T03:33:13.872Z,98784.13
2023-01-10T03:35:53.028Z,98794.00
2023-01-10T03:38:28.659Z,98791.66
2023-01-10T03:41:01.416Z,98790.97
2023-01-10T03:43:56.187Z,98797.75
2023-01-10T03:46:31.989Z,98804.81
2023-01-10T03:49:01.800Z,98802.53
2023-01-10T03:51:32.214Z,98809.63
2023-01-10T03:54:02.160Z,98826.13
2023-01-10T03:56:30.062Z,98829.19
2023-01-10T03:58:58.271Z,98826.94
2023-01-10T04:01:27.167Z,98833.78
2023-01-10T04:03:55.853Z,98834.34
2023-01-10T04:06:23.759Z,98841.06
2023-01-10T04:08:53.109Z,98846.22
2023-01-10T04:11:20.985Z,98853.50
2023-01-10T04:13:48.911Z,98852.75
2023-01-10T04:16:16.970Z,98854.34
2023-01-10T04:18:44.917Z,98850.50
2023-01-10T04:21:12.965Z,98852.41
2023-01-10T04:23:40.982Z,98852.63
2023-01-10T04:26:10.534Z,98873.91
2023-01-10T04:28:38.926Z,98856.47
2023-01-10T04:31:07.109Z,98872.34
2023-01-10T04:33:34.964Z,98881.19
2023-01-10T04:36:02.874Z,98882.28
2023-01-10T04:38:30.826Z,98885.59
2023-01-10T04:40:58.874Z,98891.69
2023-01-10T04:43:28.417Z,98882.59
2023-01-10T04:45:56.680Z,98874.25
2023-01-10T04:48:27.060Z,98879.81
2023-01-10T04:50:55.558Z,98898.22
2023-01-10T04:53:23.736Z,98885.38
2023-01-10T04:55:55.838Z,98893.72
2023-01-10T04:58:24.729Z,98904.75
2023-01-10T05:00:54.026Z,98895.97
2023-01-10T05:03:22.099Z,98913.28
2023-01-10T05:05:50.176Z,98917.22
2023-01-10T05:08:18.040Z,98923.88
2023-01-10T05:10:46.387Z,98937.13
2023-01-10T05:13:14.183Z,98952.69
2023-01-10T05:15:42.141Z,98951.84
2023-01-10T05:18:11.526Z,98955.91
2023-01-10T05:20:39.346Z,98973.16
2023-01-10T05:23:07.382Z,98973.38
2023-01-10T05:25:35.397Z,98970.38
2023-01-10T05:28:03.338Z,98962.31
2023-01-10T05:30:31.314Z,98969.88
2023-01-10T05:32:59.148Z,98973.78
2023-01-10T05:35:28.429Z,98972.22
2023-01-10T05:37:56.373Z,98976.56
2023-01-10T05:40:24.372Z,98974.66
2023-01-10T05:42:52.255Z,98974.66
2023-01-10T05:45:20.191Z,98980.31
2023-01-10T05:47:48.035Z,98985.97
2023-01-10T05:50:18.413Z,98998.94
2023-01-10T05:52:48.305Z,98986.50
2023-01-10T05:55:16.621Z,98988.44
2023-01-10T05:57:44.508Z,98986.91
2023-01-10T06:00:13.702Z,98985.97
2023-01-10T06:02:41.589Z,98992.44
2023-01-10T06:05:10.566Z,98993.00
2023-01-10T06:07:38.538Z,99017.56
2023-01-10T06:10:08.759Z,99012.13
2023-01-10T06:12:36.692Z,99024.22
2023-01-10T06:15:05.228Z,99027.94
2023-01-10T06:17:33.150Z,99035.66
2023-01-10T06:20:01.282Z,99014.91
2023-01-10T06:22:29.627Z,99020.09
2023-01-10T06:24:57.502Z,99028.09
2023-01-10T06:27:26.817Z,99031.88
2023-01-10T06:29:54.688Z,99034.44
2023-01-10T06:32:22.628Z,99038.63
2023-01-10T06:34:50.473Z,99045.59
2023-01-10T06:37:20.159Z,99046.81
2023-01-10T06:39:48.231Z,99041.47
2023-01-10T06:42:16.672Z,99045.88
2023-01-10T06:44:46.234Z,99052.09
2023-01-10T06:47:14.117Z,99051.06
2023-01-10T06:49:42.020Z,99047.22
2023-01-10T06:52:09.969Z,99053.13
2023-01-10T06:54:37.860Z,99049.84
2023-01-10T06:57:05.881Z,99053.69
2023-01-10T06:59:33.767Z,99051.94
2023-01-10T07:02:03.259Z,99063.63
2023-01-10T07:04:31.515Z,99069.81
2023-01-10T07:06:59.448Z,99085.97
2023-01-10T07:09:27.382Z,99077.44
2023-01-10T07:11:55.179Z,99073.53
2023-01-10T07:14:23.359Z,99068.91
2023-01-10T07:16:51.606Z,99075.06
2023-01-10T07:19:21.072Z,99076.00
2023-01-10T07:21:49.023Z,99078.47
2023-01-10T07:24:16.994Z,99085.47
2023-01-10T07:26:44.829Z,99091.03
2023-01-10T07:29:12.811Z,99097.56
2023-01-10T07:31:40.640Z,99098.72
2023-01-10T07:34:08.744Z,99095.34
2023-01-10T07:36:39.459Z,99092.78
2023-01-10T07:39:07.680Z,99094.22
2023-01-10T07:41:35.566Z,99094.06
2023-01-10T07:44:04.398Z,99111.53
2023-01-10T07:46:32.438Z,99124.81
2023-01-10T07:49:00.396Z,99124.63
2023-01-10T07:51:28.583Z,99120.56
2023-01-10T07:53:58.330Z,99120.75
2023-01-10T07:56:26.337Z,99139.41
2023-01-10T07:58:54.243Z,99146.56
2023-01-10T08:01:24.912Z,99147.13
2023-01-10T08:03:53.118Z,99156.03
2023-01-10T08:06:21.325Z,99142.91
2023-01-10T08:08:49.400Z,99146.41
2023-01-10T08:11:19.342Z,99160.00
2023-01-10T08:13:47.404Z,99149.25
2023-01-10T08:16:16.044Z,99159.41
2023-01-10T08:18:44.113Z,99165.22
2023-01-10T08:21:12.556Z,99175.81
2023-01-10T08:23:41.162Z,99178.72
2023-01-10T08:26:09.531Z,99189.34
2023-01-10T08:28:39.135Z,99200.50
2023-01-10T08:31:08.659Z,99199.56
2023-01-10T08:33:39.002Z,99200.88
2023-01-10T08:36:07.741Z,99208.13
2023-01-10T08:38:36.039Z,99203.94
2023-01-10T08:41:04.548Z,99215.22
2023-01-10T08:43:33.046Z,99223.59
2023-01-10T08:46:02.832Z,99231.59
2023-01-10T08:48:31.983Z,99223.88
2023-01-10T08:51:00.363Z,99239.00
2023-01-10T08:53:33.227Z,99250.31
2023-01-10T08:56:01.323Z,99257.59
2023-01-10T08:58:29.338Z,99255.06
2023-01-10T09:00:57.609Z,99256.00
2023-01-10T09:03:27.193Z,99260.94
2023-01-10T09:05:54.991Z,99278.34
2023-01-10T09:08:23.722Z,99293.38
2023-01-10T09:10:51.746Z,99287.06
2023-01-10T09:13:20.167Z,99307.59
2023-01-10T09:15:48.081Z,99325.69
2023-01-10T09:18:16.135Z,99332.13
2023-01-10T09:20:47.959Z,99342.63
2023-01-10T09:23:18.877Z,99379.63
2023-01-10T09:25:48.326Z,99386.13
2023-01-10T09:28:16.508Z,99429.19
2023-01-10T09:30:45.618Z,99450.84
2023-01-10T09:33:14.179Z,99456.97
2023-01-10T09:35:42.939Z,99462.72
2023-01-10T09:38:16.035Z,99515.69
2023-01-10T09:41:29.473Z,99529.28
2023-01-10T09:44:05.247Z,99547.47
2023-01-10T09:46:43.959Z,99555.78
2023-01-10T09:49:23.416Z,99564.59
2023-01-10T09:51:54.337Z,99593.22
2023-01-10T09:54:29.545Z,99575.13
2023-01-10T09:56:59.621Z,99578.38
2023-01-10T09:59:32.343Z,99576.38
2023-01-10T10:02:06.919Z,99557.72
2023-01-10T10:04:37.377Z,99565.84
2023-01-10T10:07:13.242Z,99562.75
2023-01-10T10:09:44.523Z,99576.34
2023-01-10T10:12:29.299Z,99577.44
2023-01-10T10:15:11.042Z,99559.66
2023-01-10T10:17:46.593Z,99590.16
2023-01-10T10:20:27.880Z,99590.53
2023-01-10T10:23:10.317Z,99587.50
2023-01-10T10:25:57.357Z,99588.41
2023-01-10T10:28:53.916Z,99580.97
2023-01-10T10:31:34.259Z,99584.41
2023-01-10T10:34:12.025Z,99613.59
2023-01-10T10:36:46.641Z,99600.19
2023-01-10T10:39:22.364Z,99618.00
2023-01-10T10:41:54.997Z,99626.91
2023-01-10T10:44:38.443Z,99611.00
2023-01-10T10:47:15.683Z,99599.34
2023-01-10T10:49:48.056Z,99606.44
2023-01-10T10:52:24.684Z,99596.84
2023-01-10T10:54:53.529Z,99589.78
2023-01-10T10:57:27.308Z,99585.44
2023-01-10T10:59:57.803Z,99588.19
2023-01-10T11:02:29.444Z,99596.44
2023-01-10T11:05:02.027Z,99585.44
2023-01-10T11:07:34.380Z,99586.28
2023-01-10T11:10:14.626Z,99572.09
2023-01-10T11:12:51.156Z,99593.38
2023-01-10T11:15:38.615Z,99607.06
2023-01-10T11:18:08.187Z,99599.28
2023-01-10T11:20:36.266Z,99619.06
2023-01-10T11:23:05.393Z,99616.63
2023-01-10T11:25:33.579Z,99620.84
2023-01-10T11:28:02.902Z,99624.28
2023-01-10T11:30:33.067Z,99621.66
2023-01-10T11:33:02.988Z,99625.88
2023-01-10T11:35:33.925Z,99628.38
2023-01-10T11:38:04.979Z,99649.66
2023-01-10T11:40:34.324Z,99642.19
2023-01-10T11:43:25.276Z,99651.28
2023-01-10T11:45:56.509Z,99656.03
2023-01-10T11:48:50.425Z,99661.16
2023-01-10T11:51:21.150Z,99655.19
2023-01-10T11:53:51.309Z,99656.22
2023-01-10T11:56:27.214Z,99663.72
2023-01-10T11:58:56.737Z,99673.59
2023-01-10T12:01:31.673Z,99654.31
2023-01-10T12:04:00.006Z,99641.50
2023-01-10T12:06:29.180Z,99655.50
2023-01-10T12:08:58.217Z,99668.41
2023-01-10T12:11:32.007Z,99671.63
2023-01-10T12:14:02.622Z,99674.13
2023-01-10T12:16:32.158Z,99681.88
2023-01-10T12:19:01.745Z,99678.47
2023-01-10T12:21:36.970Z,99697.69
2023-01-10T12:24:08.929Z,99703.06
2023-01-10T12:26:36.966Z,99703.00
2023-01-10T12:29:14.258Z,99709.13
2023-01-10T12:31:42.206Z,99717.59
2023-01-10T12:34:17.053Z,99732.06
2023-01-10T12:36:53.898Z,99732.47
2023-01-10T12:39:24.135Z,99746.59
2023-01-10T12:42:23.580Z,99763.94
2023-01-10T12:44:57.223Z,99763.94
2023-01-10T12:47:31.993Z,99758.97
2023-01-10T12:50:04.163Z,99773.94
2023-01-10T12:52:45.935Z,99778.47
2023-01-10T12:55:16.837Z,99774.03
2023-01-10T12:57:51.865Z,99799.34
2023-01-10T13:00:25.830Z,99805.34
2023-01-10T13:02:57.076Z,99821.25
2023-01-10T13:05:27.959Z,99838.38
2023-01-10T13:08:01.771Z,99843.91
2023-01-10T13:10:30.575Z,99870.69
2023-01-10T13:13:07.464Z,99875.59
2023-01-10T13:15:41.955Z,99878.59
2023-01-10T13:18:20.045Z,99898.03
2023-01-10T13:20:48.732Z,99906.09
2023-01-10T13:23:26.465Z,99912.38
2023-01-10T13:25:57.873Z,99929.13
2023-01-10T13:28:28.618Z,99926.28
2023-01-10T13:31:01.404Z,99939.88
2023-01-10T13:33:31.833Z,99962.63
2023-01-10T13:36:11.524Z,99956.66
2023-01-10T13:38:50.061Z,99972.59
2023-01-10T13:41:39.321Z,99966.94
2023-01-10T13:44:10.342Z,99968.44
2023-01-10T13:46:54.074Z,99987.28
2023-01-10T13:49:42.410Z,99996.88
2023-01-10T13:52:39.861Z,99977.31
2023-01-10T13:55:34.440Z,99987.06
2023-01-10T13:58:46.741Z,99976.44
2023-01-10T14:01:43.161Z,99969.81
2023-01-10T14:04:22.237Z,99970.56
2023-01-10T14:06:57.206Z,99969.81
2023-01-10T14:09:37.581Z,99968.94
2023-01-10T14:12:08.757Z,99976.34
2023-01-10T14:14:40.932Z,99962.81
2023-01-10T14:17:16.412Z,99974.81
2023-01-10T14:19:47.716Z,99970.38
2023-01-10T14:22:28.277Z,99963.56
2023-01-10T14:24:56.521Z,99961.16
2023-01-10T14:27:25.009Z,99970.16
2023-01-10T14:29:57.116Z,99950.44
2023-01-10T14:32:34.822Z,99967.47
2023-01-10T14:35:04.761Z,99955.78
2023-01-10T14:37:38.006Z,99950.63
2023-01-10T14:40:16.026Z,99925.88
2023-01-10T14:42:45.421Z,99938.44
2023-01-10T14:45:27.027Z,99931.44
2023-01-10T14:47:56.587Z,99943.31
2023-01-10T14:50:28.750Z,99925.69
2023-01-10T14:52:57.272Z,99943.69
2023-01-10T14:55:25.157Z,99966.09
2023-01-10T14:57:58.130Z,99947.53
2023-01-10T15:00:29.953Z,99954.44
2023-01-10T15:03:03.880Z,99931.44
2023-01-10T15:05:35.188Z,99952.22
2023-01-10T15:08:18.869Z,99951.75
2023-01-10T15:10:48.081Z,99943.69
2023-01-10T15:13:18.593Z,99952.13
2023-01-10T15:15:48.997Z,99963.72
2023-01-10T15:18:31.010Z,99967.84
2023-01-10T15:20:59.245Z,99976.84
2023-01-10T15:23:27.576Z,99992.13
2023-01-10T15:25:59.230Z,99968.38
2023-01-10T15:28:29.643Z,99956.13
2023-01-10T15:30:58.454Z,99943.78
2023-01-10T15:33:32.884Z,99951.00
2023-01-10T15:36:05.186Z,99953.97
2023-01-10T15:38:34.437Z,99942.25
2023-01-10T15:41:04.664Z,99955.88
2023-01-10T15:43:33.986Z,99930.91
2023-01-10T15:46:03.823Z,99928.28
2023-01-10T15:48:35.696Z,99921.00
2023-01-10T15:51:12.305Z,99920.44
2023-01-10T15:54:03.182Z,99894.28
2023-01-10T15:56:37.895Z,99890.53
2023-01-10T15:59:20.340Z,99854.56
2023-01-10T16:01:55.018Z,99825.94
2023-01-10T16:04:24.839Z,99815.31
2023-01-10T16:07:06.790Z,99764.81
2023-01-10T16:09:35.887Z,99722.44
2023-01-10T16:12:21.116Z,99676.50
2023-01-10T16:14:49.115Z,99643.56
2023-01-10T16:17:17.032Z,99630.50
2023-01-10T16:19:46.384Z,99580.59
2023-01-10T16:22:19.353Z,99429.88
2023-01-10T16:24:48.257Z,99411.41
2023-01-10T16:27:16.209Z,99372.78
2023-01-10T16:29:44.549Z,99305.59
2023-01-10T16:32:15.176Z,99231.31
2023-01-10T16:34:43.962Z,99198.72
2023-01-10T16:37:13.375Z,99049.53
2023-01-10T16:39:41.191Z,98821.41
2023-01-10T16:42:27.382Z,98677.06
2023-01-10T16:44:55.271Z,98626.81
2023-01-10T16:47:23.305Z,98618.88
2023-01-10T16:49:51.177Z,98623.63
2023-01-10T16:52:20.479Z,98603.59
2023-01-10T16:54:48.499Z,98590.31
2023-01-10T16:57:17.739Z,98596.34
2023-01-10T16:59:45.647Z,98586.63
2023-01-10T17:02:18.907Z,98572.69
2023-01-10T17:04:46.980Z,98563.44
2023-01-10T17:07:14.932Z,98534.28
2023-01-10T17:09:44.234Z,98524.63
2023-01-10T17:12:19.424Z,98512.22
2023-01-10T17:14:48.183Z,98511.56
2023-01-10T17:17:16.017Z,98540.28
2023-01-10T17:19:44.629Z,98591.72
2023-01-10T17:22:12.534Z,98627.69
2023-01-10T17:24:40.647Z,98658.72
2023-01-10T17:27:09.929Z,98680.44
2023-01-10T17:29:38.197Z,98661.69
2023-01-10T17:32:06.765Z,98649.66
2023-01-10T17:34:37.361Z,98614.19
2023-01-10T17:37:05.367Z,98581.34
2023-01-10T17:39:33.491Z,98526.03
2023-01-10T17:42:01.442Z,98495.88
2023-01-10T17:44:30.884Z,98488.56
2023-01-10T17:46:59.241Z,98457.44
2023-01-10T17:49:27.248Z,98444.78
2023-01-10T17:51:55.448Z,98435.28
2023-01-10T17:54:23.253Z,98400.88
2023-01-10T17:56:51.073Z,98374.47
2023-01-10T17:59:19.283Z,98356.63
2023-01-10T18:01:48.910Z,98329.63
2023-01-10T18:04:16.880Z,98305.94
2023-01-10T18:06:44.902Z,98312.59
2023-01-10T18:09:12.882Z,98285.25
2023-01-10T18:11:41.280Z,98299.84
2023-01-10T18:14:23.246Z,98331.34
2023-01-10T18:16:52.663Z,98341.66
2023-01-10T18:19:21.043Z,98352.00
2023-01-10T18:21:48.911Z,98348.94
2023-01-10T18:24:17.026Z,98384.44
2023-01-10T18:26:44.832Z,98408.16
2023-01-10T18:29:12.755Z,98429.69
2023-01-10T18:31:42.019Z,98440.91
2023-01-10T18:34:11.431Z,98442.97
2023-01-10T18:36:40.215Z,98469.94
2023-01-10T18:39:08.355Z,98509.41
2023-01-10T18:41:36.920Z,98554.88
2023-01-10T18:44:04.819Z,98596.31
2023-01-10T18:46:33.177Z,98636.09
2023-01-10T18:49:01.014Z,98711.72
2023-01-10T18:51:30.342Z,98748.44
2023-01-10T18:53:58.287Z,98831.97
2023-01-10T18:56:26.301Z,98912.22
2023-01-10T18:58:54.161Z,98970.97
2023-01-10T19:01:23.011Z,99058.09
2023-01-10T19:03:51.240Z,99101.28
2023-01-10T19:06:22.508Z,99158.22
2023-01-10T19:08:52.219Z,99157.38
2023-01-10T19:11:20.599Z,99328.22
2023-01-10T19:13:51.396Z,99479.88
2023-01-10T19:16:21.424Z,99539.69
2023-01-10T19:18:51.985Z,99619.59
2023-01-10T19:21:20.582Z,99670.50
2023-01-10T19:23:51.098Z,99710.56
2023-01-10T19:26:20.665Z,99692.53
2023-01-10T19:28:48.823Z,99630.44
2023-01-10T19:31:17.934Z,99628.97
2023-01-10T19:33:48.070Z,99575.50
2023-01-10T19:36:16.983Z,99530.72
2023-01-10T19:38:44.981Z,99528.03
2023-01-10T19:41:14.072Z,99506.28
2023-01-10T19:43:43.551Z,99473.97
2023-01-10T19:46:13.714Z,99450.63
2023-01-10T19:48:41.737Z,99445.66
2023-01-10T19:51:11.388Z,99453.31
2023-01-10T19:53:42.160Z,99461.81
2023-01-10T19:56:10.518Z,99466.69
2023-01-10T19:58:39.767Z,99496.41
2023-01-10T20:01:10.541Z,99520.22
2023-01-10T20:03:40.921Z,99547.75
2023-01-10T20:06:10.132Z,99615.59
2023-01-10T20:08:38.102Z,99666.63
2023-01-10T20:11:07.877Z,99794.13
2023-01-10T20:13:38.317Z,99877.09
2023-01-10T20:16:07.296Z,99954.66
2023-01-10T20:18:36.716Z,100023.91
2023-01-10T20:21:06.612Z,100139.72
2023-01-10T20:23:34.920Z,100176.84
2023-01-10T20:26:06.931Z,100207.88
2023-01-10T20:28:35.527Z,100256.59
2023-01-10T20:31:04.119Z,100322.34
2023-01-10T20:33:34.517Z,100376.47
2023-01-10T20:36:06.345Z,100395.50
2023-01-10T20:38:36.180Z,100402.81
2023-01-10T20:41:07.450Z,100451.88
2023-01-10T20:43:35.701Z,100468.09
2023-01-10T20:46:08.107Z,100615.88
2023-01-10T20:48:36.121Z,100646.53
2023-01-10T20:51:06.045Z,100692.66
2023-01-10T20:53:34.594Z,100713.91
2023-01-10T20:56:04.122Z,100774.53
2023-01-10T20:58:33.027Z,100784.44
2023-01-10T21:01:01.037Z,100825.44
2023-01-10T21:03:29.408Z,100854.78
2023-01-10T21:05:58.645Z,100751.13
2023-01-10T21:08:29.702Z,100731.25
2023-01-10T21:10:58.446Z,100698.56
2023-01-10T21:13:26.684Z,100636.91
2023-01-10T21:15:56.554Z,100641.41
2023-01-10T21:18:26.026Z,100611.34
2023-01-10T21:20:56.282Z,100544.38
2023-01-10T21:23:25.681Z,100494.53
2023-01-10T21:26:00.877Z,100396.41
2023-01-10T21:28:28.998Z,100289.47
2023-01-10T21:30:56.935Z,100198.28
2023-01-10T21:33:24.937Z,100092.31
2023-01-10T21:35:53.690Z,99944.16
2023-01-10T21:38:21.877Z,99804.31
2023-01-10T21:40:49.933Z,99660.41
2023-01-10T21:43:19.259Z,99536.84
2023-01-10T21:45:47.180Z,99402.97
2023-01-10T21:48:15.290Z,99264.81
2023-01-10T21:50:44.760Z,99124.97
2023-01-10T21:53:12.837Z,99080.72
2023-01-10T21:55:40.650Z,99054.66
2023-01-10T21:58:08.683Z,99049.75
2023-01-10T22:00:38.501Z,99054.56
2023-01-10T22:03:06.370Z,99072.25
2023-01-10T22:05:34.412Z,99084.56
2023-01-10T22:08:02.303Z,99127.88
2023-01-10T22:10:30.535Z,99190.41
2023-01-10T22:12:58.375Z,99220.88
2023-01-10T22:15:27.111Z,99260.94
2023-01-10T22:17:58.146Z,99308.69
2023-01-10T22:20:25.986Z,99376.72
2023-01-10T22:22:53.812Z,99454.84
2023-01-10T22:25:21.883Z,99520.50
2023-01-10T22:27:49.769Z,99583.75
2023-01-10T22:30:18.213Z,99674.34
2023-01-10T22:32:46.159Z,99769.41
2023-01-10T22:35:16.710Z,99875.44
2023-01-10T22:37:44.556Z,100006.38
2023-01-10T22:40:13.118Z,100133.38
2023-01-10T22:42:41.057Z,100273.41
2023-01-10T22:45:09.811Z,100393.84
2023-01-10T22:47:38.429Z,100503.66
2023-01-10T22:50:07.441Z,100615.63
2023-01-10T22:52:36.761Z,100700.19
2023-01-10T22:55:05.197Z,100772.75
2023-01-10T22:57:33.299Z,100804.28
2023-01-10T23:00:01.213Z,100836.34
2023-01-10T23:02:29.287Z,100801.41
2023-01-10T23:04:57.361Z,100824.81
2023-01-10T23:07:25.267Z,100861.41
2023-01-10T23:09:54.670Z,100880.84
2023-01-10T23:12:22.574Z,100886.22
2023-01-10T23:14:50.461Z,100899.25
2023-01-10T23:17:18.296Z,100864.50
2023-01-10T23:19:46.133Z,100828.72
2023-01-10T23:22:13.997Z,100801.91
2023-01-10T23:24:41.860Z,100801.03
2023-01-10T23:27:11.138Z,100755.25
2023-01-10T23:29:39.004Z,100677.84
2023-01-10T23:32:07.019Z,100584.44
2023-01-10T23:34:35.072Z,100522.88
2023-01-10T23:37:03.346Z,100400.94
2023-01-10T23:39:31.465Z,100287.59
2023-01-10T23:41:59.511Z,100194.56
2023-01-10T23:44:29.835Z,100045.09
2023-01-10T23:46:57.859Z,99926.31
2023-01-10T23:49:26.163Z,99806.00
2023-01-10T23:51:54.073Z,99666.31
2023-01-10T23:54:22.018Z,99524.97
2023-01-10T23:56:52.197Z,99367.88
2023-01-10T23:59:20.591Z,99209.88
